Time;durP1;ratioP1;P1;durP2;ratioP2;P2;SDS_P1;SDS_P2;PMS_P1;PMS_P2;Temp;Humidity;BMP_temperature;BMP_pressure;BME280_temperature;BME280_humidity;BME280_pressure;Samples;Min_cycle;Max_cycle;Signal;HPM_P1;HPM_P2
2022/06/09 00:01:24;;;;;;;1.50;0.80;;;16.70;99.90;;;;;;5072758;28;20292;-60
2022/06/09 00:03:57;;;;;;;1.60;0.85;;;16.70;99.90;;;;;;5072534;28;20205;-61
2022/06/09 00:06:28;;;;;;;1.03;0.60;;;16.80;99.90;;;;;;5072047;28;20240;-61
2022/06/09 00:08:56;;;;;;;1.08;0.60;;;16.80;99.90;;;;;;5072558;28;20197;-60
2022/06/09 00:11:25;;;;;;;3.53;1.00;;;16.90;99.90;;;;;;5072694;28;20687;-61
2022/06/09 00:13:53;;;;;;;2.57;0.90;;;17.00;99.90;;;;;;5072526;28;20209;-61
2022/06/09 00:16:20;;;;;;;0.60;0.60;;;17.00;99.90;;;;;;5072153;28;20225;-61
2022/06/09 00:18:47;;;;;;;1.97;0.63;;;17.10;99.90;;;;;;5072320;28;20228;-60
2022/06/09 00:21:13;;;;;;;1.17;0.80;;;17.10;99.90;;;;;;5072319;28;20262;-60
2022/06/09 00:23:40;;;;;;;1.02;0.80;;;17.20;99.90;;;;;;5072195;28;20209;-60
2022/06/09 00:26:08;;;;;;;0.73;0.50;;;17.30;99.90;;;;;;5072070;28;20232;-61
2022/06/09 00:28:35;;;;;;;1.13;0.70;;;17.30;99.90;;;;;;5072084;28;20576;-61
2022/06/09 00:31:02;;;;;;;1.13;0.80;;;17.40;99.90;;;;;;5072137;28;20208;-61
2022/06/09 00:33:29;;;;;;;1.55;0.70;;;17.40;99.90;;;;;;5072119;28;20213;-61
2022/06/09 00:35:55;;;;;;;1.85;0.90;;;17.40;99.90;;;;;;5071641;28;20734;-61
2022/06/09 00:38:22;;;;;;;2.50;0.73;;;17.50;99.90;;;;;;5072183;28;20560;-62
2022/06/09 00:40:49;;;;;;;2.72;0.90;;;17.50;99.90;;;;;;5072090;28;20205;-61
2022/06/09 00:43:17;;;;;;;1.27;0.50;;;17.50;99.90;;;;;;5072063;28;20581;-61
2022/06/09 00:45:50;;;;;;;1.52;0.88;;;17.50;99.90;;;;;;5071477;28;20594;-61
2022/06/09 00:48:26;;;;;;;1.63;0.60;;;17.50;99.90;;;;;;5071879;28;20205;-61
2022/06/09 00:51:00;;;;;;;2.28;0.57;;;17.50;99.90;;;;;;5072071;28;20208;-61
2022/06/09 00:53:31;;;;;;;1.23;0.68;;;17.60;99.90;;;;;;5072093;28;20216;-61
2022/06/09 00:56:00;;;;;;;0.88;0.80;;;17.60;99.90;;;;;;5071560;28;20232;-62
2022/06/09 00:58:31;;;;;;;2.30;0.60;;;17.60;99.90;;;;;;5071878;28;20252;-61
2022/06/09 01:01:02;;;;;;;1.75;0.52;;;17.60;99.90;;;;;;5071782;28;20266;-61
2022/06/09 01:03:32;;;;;;;0.77;0.60;;;17.60;99.90;;;;;;5071786;28;20718;-61
2022/06/09 01:06:06;;;;;;;1.45;0.70;;;17.50;99.90;;;;;;5071328;28;20237;-61
2022/06/09 01:08:35;;;;;;;2.47;0.70;;;17.60;99.90;;;;;;5072825;28;20644;-61
2022/06/09 01:11:03;;;;;;;0.90;0.60;;;17.50;99.90;;;;;;5075859;28;20228;-61
2022/06/09 01:13:32;;;;;;;0.70;0.60;;;17.60;99.90;;;;;;5075817;28;20367;-61
2022/06/09 01:16:07;;;;;;;1.77;0.68;;;17.60;99.90;;;;;;5075491;28;20711;-61
2022/06/09 01:18:40;;;;;;;1.15;0.57;;;17.60;99.90;;;;;;5076035;28;20228;-61
2022/06/09 01:21:16;;;;;;;1.23;0.68;;;17.50;99.90;;;;;;5075877;28;20208;-61
2022/06/09 01:24:21;;;;;;;1.00;0.43;;;17.60;99.90;;;;;;5075725;28;20560;-61
2022/06/09 01:27:21;;;;;;;2.85;0.70;;;17.60;99.90;;;;;;5070221;28;20205;-61
2022/06/09 01:30:03;;;;;;;2.55;0.65;;;17.50;99.90;;;;;;5060172;28;20205;-61
2022/06/09 01:32:35;;;;;;;2.05;0.47;;;17.40;99.90;;;;;;5075764;28;20215;-61
2022/06/09 01:35:12;;;;;;;1.27;0.60;;;17.40;99.90;;;;;;5075540;28;20592;-61
2022/06/09 01:37:42;;;;;;;0.88;0.70;;;17.40;99.90;;;;;;5075246;28;20261;-61
2022/06/09 01:40:12;;;;;;;1.05;0.52;;;17.40;99.90;;;;;;5075681;28;20254;-61
2022/06/09 01:42:41;;;;;;;1.30;0.50;;;17.40;99.90;;;;;;5075116;28;20219;-61
2022/06/09 01:45:13;;;;;;;1.30;0.60;;;17.30;99.90;;;;;;5075265;28;20298;-61
2022/06/09 01:47:47;;;;;;;0.73;0.40;;;17.30;99.90;;;;;;5075124;28;20296;-61
2022/06/09 01:50:18;;;;;;;1.85;0.50;;;17.30;99.90;;;;;;5075150;28;20208;-61
2022/06/09 01:52:46;;;;;;;0.75;0.55;;;17.20;99.90;;;;;;5075210;28;20212;-61
2022/06/09 01:55:17;;;;;;;0.47;0.45;;;17.20;99.90;;;;;;5074951;28;20221;-61
2022/06/09 01:57:46;;;;;;;0.93;0.63;;;17.20;99.90;;;;;;5074967;28;20201;-61
2022/06/09 02:00:16;;;;;;;2.42;0.70;;;17.20;99.90;;;;;;5074865;28;20213;-61
2022/06/09 02:02:49;;;;;;;1.45;0.20;;;17.20;99.90;;;;;;5074887;28;20262;-61
2022/06/09 02:05:20;;;;;;;0.40;0.30;;;17.10;99.90;;;;;;5074665;28;20661;-61
2022/06/09 02:07:48;;;;;;;0.90;0.30;;;17.10;99.90;;;;;;5074734;28;20256;-61
2022/06/09 02:10:21;;;;;;;0.40;0.30;;;17.10;99.90;;;;;;5074922;28;20232;-61
2022/06/09 02:12:49;;;;;;;0.82;0.40;;;17.00;99.90;;;;;;5075228;28;20231;-61
2022/06/09 02:15:22;;;;;;;0.22;0.20;;;17.00;99.90;;;;;;5074600;28;20387;-62
2022/06/09 02:17:52;;;;;;;0.52;0.30;;;17.00;99.90;;;;;;5074556;28;20204;-61
2022/06/09 02:20:21;;;;;;;2.83;0.50;;;17.00;99.90;;;;;;5073721;28;20629;-61
2022/06/09 02:22:48;;;;;;;1.33;0.52;;;17.00;99.90;;;;;;5074805;28;20205;-61
2022/06/09 02:25:15;;;;;;;1.95;0.60;;;17.00;99.90;;;;;;5074558;28;20225;-61
2022/06/09 02:27:42;;;;;;;5.82;0.52;;;17.00;99.90;;;;;;5074255;28;20221;-61
2022/06/09 02:30:10;;;;;;;1.90;0.50;;;17.00;99.90;;;;;;5074199;28;20711;-60
2022/06/09 02:32:36;;;;;;;1.60;0.50;;;17.00;99.90;;;;;;5074216;28;20201;-61
2022/06/09 02:35:06;;;;;;;3.55;0.60;;;17.00;99.90;;;;;;5074360;28;20270;-60
2022/06/09 02:37:32;;;;;;;2.20;0.43;;;17.00;99.90;;;;;;5073958;28;20672;-61
2022/06/09 02:39:59;;;;;;;2.35;0.47;;;17.00;99.90;;;;;;5073983;28;20778;-61
2022/06/09 02:42:26;;;;;;;0.85;0.50;;;17.00;99.90;;;;;;5074224;28;20295;-61
2022/06/09 02:44:53;;;;;;;5.55;0.50;;;16.90;99.90;;;;;;5074046;28;20229;-61
2022/06/09 02:47:19;;;;;;;3.33;0.73;;;16.80;99.90;;;;;;5074212;28;20212;-61
2022/06/09 02:49:46;;;;;;;3.50;2.05;;;16.80;99.90;;;;;;5074232;28;20287;-61
2022/06/09 02:52:14;;;;;;;3.07;1.37;;;16.80;99.90;;;;;;5074032;28;20263;-61
2022/06/09 02:54:41;;;;;;;2.03;1.30;;;16.80;99.90;;;;;;5073822;28;20233;-61
2022/06/09 02:57:07;;;;;;;1.73;1.00;;;16.70;99.90;;;;;;5073913;28;20205;-61
2022/06/09 02:59:34;;;;;;;3.43;1.40;;;16.70;99.90;;;;;;5073639;28;20225;-61
2022/06/09 03:02:01;;;;;;;2.53;1.42;;;16.70;99.90;;;;;;5074028;28;20213;-61
2022/06/09 03:04:28;;;;;;;3.17;0.70;;;16.70;99.90;;;;;;5073814;28;20243;-61
2022/06/09 03:06:55;;;;;;;2.15;0.73;;;16.70;99.90;;;;;;5073612;28;20557;-61
2022/06/09 03:09:23;;;;;;;1.40;0.70;;;16.60;99.90;;;;;;5073730;28;20244;-61
2022/06/09 03:11:50;;;;;;;1.45;0.60;;;16.60;99.90;;;;;;5073622;28;20201;-61
2022/06/09 03:14:16;;;;;;;5.35;2.25;;;16.60;99.90;;;;;;5073190;28;20262;-61
2022/06/09 03:16:43;;;;;;;1.80;1.40;;;16.50;99.90;;;;;;5073449;28;20205;-61
2022/06/09 03:19:10;;;;;;;3.08;1.80;;;16.40;99.90;;;;;;5073494;28;20692;-61
2022/06/09 03:21:36;;;;;;;1.98;1.45;;;16.40;99.90;;;;;;5073524;28;20204;-61
2022/06/09 03:24:04;;;;;;;3.58;2.25;;;16.30;99.90;;;;;;5073344;28;20209;-61
2022/06/09 03:26:32;;;;;;;1.73;0.93;;;16.20;99.90;;;;;;5073472;28;20204;-61
2022/06/09 03:28:59;;;;;;;2.47;0.90;;;16.20;99.90;;;;;;5073028;28;20208;-61
2022/06/09 03:31:26;;;;;;;3.22;1.70;;;16.20;99.90;;;;;;5072833;28;20205;-61
2022/06/09 03:33:52;;;;;;;3.20;1.40;;;16.20;99.90;;;;;;5072892;28;20213;-62
2022/06/09 03:36:19;;;;;;;16.90;12.17;;;16.20;99.90;;;;;;5072635;28;20279;-61
2022/06/09 03:38:46;;;;;;;2.50;1.30;;;16.20;99.90;;;;;;5072959;28;20228;-61
2022/06/09 03:41:12;;;;;;;4.23;2.83;;;16.20;99.90;;;;;;5072847;28;20212;-62
2022/06/09 03:43:40;;;;;;;3.20;1.50;;;16.10;99.90;;;;;;5072695;28;20216;-61
2022/06/09 03:46:08;;;;;;;4.28;1.33;;;16.10;99.90;;;;;;5072702;28;20274;-61
2022/06/09 03:48:35;;;;;;;1.33;1.10;;;16.10;99.90;;;;;;5072944;28;20254;-62
2022/06/09 03:51:01;;;;;;;5.33;3.07;;;16.20;99.90;;;;;;5072824;28;20295;-61
2022/06/09 03:53:28;;;;;;;3.97;2.30;;;16.20;99.90;;;;;;5072720;28;20251;-61
2022/06/09 03:55:57;;;;;;;3.50;1.40;;;16.30;99.90;;;;;;5072407;28;20225;-62
2022/06/09 03:58:23;;;;;;;3.85;2.35;;;16.30;99.90;;;;;;5072725;28;20338;-62
2022/06/09 04:00:51;;;;;;;3.80;2.27;;;16.30;99.90;;;;;;5072634;28;20204;-61
2022/06/09 04:03:18;;;;;;;3.87;2.47;;;16.30;99.90;;;;;;5072544;28;20262;-61
2022/06/09 04:05:45;;;;;;;4.27;1.10;;;16.40;99.90;;;;;;5072006;28;20236;-61
2022/06/09 04:08:13;;;;;;;5.57;1.20;;;16.40;99.90;;;;;;5072451;28;20211;-61
2022/06/09 04:10:40;;;;;;;3.23;1.20;;;16.40;99.90;;;;;;5072502;28;20205;-61
2022/06/09 04:13:07;;;;;;;4.13;2.47;;;16.50;99.90;;;;;;5072399;28;20211;-61
2022/06/09 04:15:34;;;;;;;1.70;1.20;;;16.50;99.90;;;;;;5072043;28;20232;-61
2022/06/09 04:18:04;;;;;;;3.30;2.00;;;16.60;99.90;;;;;;5072229;28;20201;-62
2022/06/09 04:20:31;;;;;;;3.47;1.37;;;16.60;99.90;;;;;;5072265;28;20313;-61
2022/06/09 04:22:58;;;;;;;4.50;1.50;;;16.70;99.90;;;;;;5072239;28;20300;-62
2022/06/09 04:25:25;;;;;;;2.67;1.60;;;16.70;99.90;;;;;;5072059;28;20600;-61
2022/06/09 04:27:52;;;;;;;5.00;1.27;;;16.70;99.90;;;;;;5071965;28;20254;-62
2022/06/09 04:30:19;;;;;;;2.83;1.10;;;16.80;99.90;;;;;;5072211;28;20204;-61
2022/06/09 04:32:46;;;;;;;1.83;1.10;;;17.00;99.90;;;;;;5072188;28;20205;-61
2022/06/09 04:35:15;;;;;;;7.28;4.95;;;17.10;99.90;;;;;;5072003;28;20224;-61
2022/06/09 04:40:27;;;;;;;2.42;1.10;;;17.50;99.90;;;;;;5071932;28;20315;-61
2022/06/09 04:42:54;;;;;;;6.40;1.35;;;17.80;99.90;;;;;;5071763;28;20213;-61
2022/06/09 04:45:20;;;;;;;5.43;2.38;;;18.10;99.90;;;;;;5071697;28;20225;-61
2022/06/09 04:47:47;;;;;;;3.50;1.60;;;18.40;99.90;;;;;;5071736;28;20262;-62
2022/06/09 04:50:18;;;;;;;3.60;1.40;;;18.80;99.90;;;;;;5071784;28;20209;-62
2022/06/09 04:52:44;;;;;;;1.90;1.10;;;19.00;99.90;;;;;;5072117;28;20216;-62
2022/06/09 04:55:12;;;;;;;3.35;1.25;;;18.90;99.90;;;;;;5071931;28;20228;-62
2022/06/09 04:57:39;;;;;;;3.22;1.10;;;19.00;99.90;;;;;;5071542;28;20630;-62
2022/06/09 05:00:07;;;;;;;3.00;1.20;;;18.90;99.90;;;;;;5071765;28;20231;-61
2022/06/09 05:02:34;;;;;;;2.60;1.00;;;18.80;99.90;;;;;;5071569;28;20216;-62
2022/06/09 05:05:01;;;;;;;2.80;1.05;;;18.70;99.90;;;;;;5091133;22;20230;-61
2022/06/09 05:07:29;;;;;;;2.70;1.05;;;18.60;99.90;;;;;;5053056;28;20209;-61
2022/06/09 05:09:56;;;;;;;3.58;1.30;;;18.50;99.90;;;;;;5053552;28;20232;-60
2022/06/09 05:12:23;;;;;;;2.63;1.30;;;18.50;99.90;;;;;;5053286;28;20216;-61
2022/06/09 05:14:51;;;;;;;2.95;1.50;;;18.50;99.90;;;;;;5053392;28;20232;-61
2022/06/09 05:17:19;;;;;;;4.40;1.50;;;18.60;99.90;;;;;;5052536;28;20201;-61
2022/06/09 05:19:45;;;;;;;3.45;1.50;;;18.80;99.90;;;;;;5052887;28;20232;-61
2022/06/09 05:22:12;;;;;;;2.72;1.45;;;19.00;99.90;;;;;;5052853;28;20228;-60
2022/06/09 05:24:40;;;;;;;3.45;1.70;;;19.30;99.90;;;;;;5052838;28;20209;-60
2022/06/09 05:27:07;;;;;;;4.72;1.52;;;19.40;99.90;;;;;;5052462;28;20205;-60
2022/06/09 05:29:34;;;;;;;3.08;1.15;;;19.40;99.90;;;;;;5052533;28;20201;-61
2022/06/09 05:32:03;;;;;;;3.45;1.42;;;19.60;99.90;;;;;;5052782;28;20205;-61
2022/06/09 05:34:30;;;;;;;3.08;1.52;;;19.80;99.90;;;;;;5052597;28;20311;-62
2022/06/09 05:36:56;;;;;;;6.78;1.50;;;19.90;99.90;;;;;;5052540;28;20219;-61
2022/06/09 05:45:09;;;;;;;2.22;0.98;;;20.20;99.90;;;;;;4990545;28;20591;-61
2022/06/09 05:47:35;;;;;;;3.30;1.27;;;20.60;99.90;;;;;;5038204;28;20202;-61
2022/06/09 05:50:02;;;;;;;6.00;1.42;;;20.70;99.90;;;;;;5052474;28;20206;-61
2022/06/09 05:52:30;;;;;;;3.17;1.30;;;20.90;99.90;;;;;;5051634;28;20716;-61
2022/06/09 05:54:57;;;;;;;3.20;1.10;;;21.50;99.90;;;;;;5051790;28;20785;-60
2022/06/09 05:57:27;;;;;;;4.22;1.30;;;23.40;99.90;;;;;;5055969;28;20206;-62
2022/06/09 05:59:54;;;;;;;2.80;1.08;;;25.00;99.90;;;;;;5056620;28;20236;-62
2022/06/09 06:02:24;;;;;;;6.50;1.17;;;25.80;99.90;;;;;;5056070;28;20212;-62
2022/06/09 06:04:52;;;;;;;3.63;1.00;;;26.70;99.90;;;;;;5055794;28;20327;-61
2022/06/09 06:07:19;;;;;;;6.40;1.13;;;26.70;99.90;;;;;;5055745;28;20209;-61
2022/06/09 06:09:46;;;;;;;2.70;1.10;;;27.20;99.90;;;;;;5056293;28;20205;-61
2022/06/09 06:12:13;;;;;;;2.53;0.75;;;27.20;99.50;;;;;;5056320;28;20213;-61
2022/06/09 06:14:42;;;;;;;6.82;1.23;;;26.70;99.50;;;;;;5055966;28;20229;-62
2022/06/09 06:17:08;;;;;;;3.10;0.90;;;26.40;99.40;;;;;;5056286;28;20587;-62
2022/06/09 06:19:35;;;;;;;5.82;1.35;;;27.10;99.20;;;;;;5055881;28;20600;-61
2022/06/09 06:22:02;;;;;;;3.92;1.02;;;27.80;97.10;;;;;;5056281;28;20193;-62
2022/06/09 06:24:29;;;;;;;5.60;1.05;;;29.00;94.20;;;;;;5055837;28;20225;-62
2022/06/09 06:26:59;;;;;;;3.90;1.23;;;28.90;92.70;;;;;;5055759;28;20676;-61
2022/06/09 06:29:27;;;;;;;2.92;1.02;;;27.80;94.10;;;;;;5055942;28;20210;-61
2022/06/09 06:31:55;;;;;;;3.05;1.00;;;27.00;94.70;;;;;;5055345;28;20235;-61
2022/06/09 06:34:23;;;;;;;2.70;1.15;;;26.30;96.00;;;;;;5055238;28;20205;-62
2022/06/09 06:36:49;;;;;;;2.10;0.98;;;25.90;96.50;;;;;;5054923;28;20688;-62
2022/06/09 06:39:16;;;;;;;2.40;1.17;;;26.50;95.50;;;;;;5055439;28;20563;-63
2022/06/09 06:41:43;;;;;;;4.63;1.20;;;26.50;95.10;;;;;;5055410;28;20214;-63
2022/06/09 06:44:10;;;;;;;3.97;1.13;;;26.20;95.20;;;;;;5055300;28;20206;-63
2022/06/09 06:46:37;;;;;;;2.35;0.93;;;25.10;96.90;;;;;;5055170;28;20217;-63
2022/06/09 06:49:06;;;;;;;4.97;1.52;;;24.20;98.30;;;;;;5055500;28;20201;-63
2022/06/09 06:51:33;;;;;;;4.20;1.10;;;24.40;98.30;;;;;;5054864;28;20206;-62
2022/06/09 06:54:00;;;;;;;6.82;1.35;;;25.00;98.10;;;;;;5055249;28;20259;-63
2022/06/09 06:56:27;;;;;;;5.00;1.30;;;25.20;96.80;;;;;;5054355;28;20705;-63
2022/06/09 06:58:54;;;;;;;3.55;1.20;;;24.40;98.30;;;;;;5055352;28;20221;-64
2022/06/09 07:01:21;;;;;;;3.72;1.20;;;23.70;99.60;;;;;;5055177;28;20595;-63
2022/06/09 07:03:48;;;;;;;5.28;1.63;;;23.40;99.90;;;;;;5054972;28;20267;-63
2022/06/09 07:06:16;;;;;;;3.83;1.40;;;23.20;99.80;;;;;;5054274;28;20239;-62
2022/06/09 07:08:43;;;;;;;5.03;1.42;;;23.10;99.90;;;;;;5055355;28;20387;-62
2022/06/09 07:11:10;;;;;;;4.43;1.40;;;23.00;99.90;;;;;;5055159;28;20205;-62
2022/06/09 07:13:37;;;;;;;4.32;1.25;;;22.90;99.90;;;;;;5055045;28;20202;-62
2022/06/09 07:16:05;;;;;;;5.35;1.40;;;22.60;99.90;;;;;;5054619;28;20611;-63
2022/06/09 07:18:32;;;;;;;6.13;1.45;;;23.40;99.90;;;;;;5054635;28;20689;-59
2022/06/09 07:21:00;;;;;;;4.35;1.30;;;24.50;99.10;;;;;;5049899;28;20492;-60
2022/06/09 07:23:29;;;;;;;6.68;1.13;;;26.80;95.70;;;;;;5053356;28;20206;-61
2022/06/09 07:25:57;;;;;;;4.15;1.20;;;29.10;90.90;;;;;;5053086;28;20225;-60
2022/06/09 07:28:24;;;;;;;4.55;1.50;;;30.40;86.60;;;;;;5053200;28;20236;-61
2022/06/09 07:30:55;;;;;;;4.40;1.50;;;31.40;81.20;;;;;;5053406;28;20213;-62
2022/06/09 07:33:22;;;;;;;4.60;1.35;;;30.40;81.70;;;;;;5053676;28;20224;-63
2022/06/09 07:35:51;;;;;;;4.22;1.50;;;30.40;79.70;;;;;;5053900;28;20234;-65
2022/06/09 07:38:19;;;;;;;3.13;1.08;;;30.40;78.70;;;;;;5054922;28;20228;-63
2022/06/09 07:40:47;;;;;;;4.18;1.20;;;31.30;77.40;;;;;;5054183;28;20221;-64
2022/06/09 07:43:14;;;;;;;4.68;1.80;;;32.00;74.00;;;;;;5054173;28;20212;-65
2022/06/09 07:45:42;;;;;;;4.70;1.40;;;31.30;73.80;;;;;;5054016;28;20233;-66
2022/06/09 07:48:09;;;;;;;2.95;1.08;;;31.30;74.00;;;;;;5053087;28;20208;-65
2022/06/09 07:50:36;;;;;;;5.55;1.63;;;30.50;73.70;;;;;;5054114;28;20212;-64
2022/06/09 07:53:03;;;;;;;3.15;1.10;;;29.30;75.40;;;;;;5053137;28;20648;-60
2022/06/09 07:55:31;;;;;;;3.60;1.30;;;28.00;78.70;;;;;;5053309;28;20613;-65
2022/06/09 07:57:59;;;;;;;4.75;1.20;;;26.90;82.70;;;;;;5053841;28;20202;-64
2022/06/09 08:00:26;;;;;;;3.72;1.33;;;27.50;81.90;;;;;;5054175;28;20225;-65
2022/06/09 08:02:54;;;;;;;4.45;1.48;;;29.20;77.50;;;;;;5054105;28;20202;-63
2022/06/09 08:05:23;;;;;;;3.28;1.10;;;28.80;75.10;;;;;;5054451;28;20234;-64
2022/06/09 08:07:50;;;;;;;4.65;1.67;;;27.80;77.90;;;;;;5054218;28;20213;-66
2022/06/09 08:10:22;;;;;;;4.78;1.50;;;26.50;81.40;;;;;;5053399;28;20213;-62
2022/06/09 08:12:51;;;;;;;3.78;1.40;;;25.90;82.90;;;;;;5053711;28;20209;-60
2022/06/09 08:15:19;;;;;;;4.25;1.30;;;25.60;85.00;;;;;;5054101;28;20597;-66
2022/06/09 08:17:46;;;;;;;4.30;1.30;;;26.40;83.70;;;;;;5053982;28;20205;-67
2022/06/09 08:20:14;;;;;;;4.40;1.52;;;27.40;81.00;;;;;;5055197;28;20227;-66
2022/06/09 08:22:43;;;;;;;4.45;1.40;;;28.10;78.00;;;;;;5054647;28;20209;-68
2022/06/09 08:25:11;;;;;;;3.88;1.20;;;29.30;75.60;;;;;;5054078;28;20697;-66
2022/06/09 08:27:38;;;;;;;5.03;1.30;;;30.30;72.70;;;;;;5053385;28;20216;-64
2022/06/09 08:30:06;;;;;;;3.60;1.25;;;30.50;71.40;;;;;;5053046;28;20205;-64
2022/06/09 08:32:35;;;;;;;3.30;1.20;;;30.80;70.40;;;;;;5053945;28;20577;-66
2022/06/09 08:35:02;;;;;;;3.88;1.25;;;31.20;69.20;;;;;;5054418;28;20322;-66
2022/06/09 08:37:28;;;;;;;5.75;1.27;;;30.40;69.60;;;;;;5054196;28;20209;-65
2022/06/09 08:39:55;;;;;;;5.03;1.30;;;28.50;72.70;;;;;;5054984;28;20229;-64
2022/06/09 08:42:31;;;;;;;5.60;1.50;;;26.90;75.90;;;;;;5053850;28;20213;-64
2022/06/09 08:45:02;;;;;;;3.85;1.17;;;25.30;81.10;;;;;;5053586;28;20225;-61
2022/06/09 08:47:37;;;;;;;7.10;1.50;;;25.20;82.90;;;;;;5052314;28;20214;-60
2022/06/09 08:50:15;;;;;;;6.97;1.40;;;25.40;83.40;;;;;;5052838;28;20201;-60
2022/06/09 08:52:52;;;;;;;5.40;1.17;;;25.30;82.50;;;;;;5052711;28;20205;-64
2022/06/09 08:55:32;;;;;;;3.85;1.30;;;24.80;85.80;;;;;;5053185;28;20236;-62
2022/06/09 08:58:03;;;;;;;11.18;6.32;;;25.20;86.20;;;;;;5053427;28;20206;-63
2022/06/09 09:00:36;;;;;;;3.75;1.00;;;25.40;85.50;;;;;;5054047;28;20229;-65
2022/06/09 09:03:10;;;;;;;5.13;1.08;;;25.60;84.20;;;;;;5052924;28;20708;-62
2022/06/09 09:05:43;;;;;;;2.63;1.35;;;25.70;82.60;;;;;;5053602;28;20238;-62
2022/06/09 09:08:11;;;;;;;6.80;1.85;;;25.60;82.70;;;;;;5052457;28;20224;-65
2022/06/09 09:10:48;;;;;;;3.35;1.25;;;25.20;85.00;;;;;;5053211;28;20554;-65
2022/06/09 09:13:25;;;;;;;7.07;1.40;;;24.50;86.30;;;;;;5051442;28;20232;-69
2022/06/09 09:15:56;;;;;;;4.63;1.48;;;24.00;89.60;;;;;;5053171;28;20645;-63
2022/06/09 09:18:35;;;;;;;5.97;1.40;;;23.70;90.10;;;;;;5053439;28;20287;-63
2022/06/09 09:21:17;;;;;;;4.80;1.60;;;23.80;89.00;;;;;;5052960;28;20221;-64
2022/06/09 09:23:52;;;;;;;3.58;1.35;;;24.00;87.70;;;;;;5053127;28;20212;-59
2022/06/09 09:26:29;;;;;;;4.13;1.65;;;24.10;86.10;;;;;;5050798;28;20225;-60
2022/06/09 09:29:02;;;;;;;4.32;1.20;;;24.20;87.70;;;;;;5051987;28;20205;-60
2022/06/09 09:31:44;;;;;;;5.28;1.30;;;24.00;87.30;;;;;;5055547;28;20288;-60
2022/06/09 09:34:16;;;;;;;6.55;1.50;;;24.40;88.30;;;;;;5055564;28;20209;-59
2022/06/09 09:36:46;;;;;;;2.95;1.02;;;24.60;86.80;;;;;;5054703;28;20666;-60
2022/06/09 09:39:17;;;;;;;4.63;1.20;;;24.80;84.70;;;;;;5055277;28;20206;-60
2022/06/09 09:41:46;;;;;;;5.70;1.30;;;24.50;83.00;;;;;;5054828;28;20218;-60
2022/06/09 09:44:19;;;;;;;3.00;0.98;;;24.40;84.10;;;;;;5054985;28;20283;-60
2022/06/09 09:46:50;;;;;;;4.20;1.23;;;24.70;82.60;;;;;;5054570;28;20231;-60
2022/06/09 09:49:23;;;;;;;4.72;1.42;;;24.90;83.00;;;;;;5054594;28;20201;-60
2022/06/09 09:51:51;;;;;;;6.53;1.20;;;25.00;82.90;;;;;;5054576;28;20201;-60
2022/06/09 09:54:22;;;;;;;3.67;1.02;;;25.10;83.20;;;;;;5054587;28;20650;-60
2022/06/09 09:57:01;;;;;;;2.95;1.30;;;25.20;82.30;;;;;;5054368;28;20270;-59
2022/06/09 09:59:28;;;;;;;7.45;1.40;;;25.00;82.80;;;;;;5054388;28;20205;-60
2022/06/09 10:10:26;;;;;;;3.63;1.58;;;24.30;85.10;;;;;;5054478;28;20729;-59
2022/06/09 10:12:54;;;;;;;5.53;2.25;;;24.10;86.20;;;;;;5053875;28;20324;-59
2022/06/09 10:15:23;;;;;;;8.27;3.53;;;24.00;85.60;;;;;;5053877;28;20240;-61
2022/06/09 10:17:57;;;;;;;7.75;2.45;;;23.80;84.40;;;;;;5053662;28;20212;-60
2022/06/09 10:20:33;;;;;;;5.40;2.20;;;23.40;86.40;;;;;;5053879;28;20224;-60
2022/06/09 10:23:25;;;;;;;4.57;1.20;;;23.40;86.30;;;;;;5054343;28;20205;-60
2022/06/09 10:25:58;;;;;;;3.50;1.17;;;23.50;85.80;;;;;;5053241;28;20240;-60
2022/06/09 10:28:34;;;;;;;2.50;1.02;;;23.30;87.20;;;;;;5053696;28;20638;-60
2022/06/09 10:31:06;;;;;;;5.70;1.17;;;23.30;86.80;;;;;;5054047;28;20660;-59
2022/06/09 10:33:38;;;;;;;5.22;1.40;;;23.60;87.30;;;;;;5053362;28;20202;-60
2022/06/09 10:36:15;;;;;;;3.58;1.05;;;23.90;86.50;;;;;;5053131;28;20673;-60
2022/06/09 10:38:47;;;;;;;4.22;0.98;;;24.30;85.70;;;;;;5053293;28;20655;-60
2022/06/09 10:41:20;;;;;;;5.78;1.33;;;24.50;84.40;;;;;;5052947;28;20230;-62
2022/06/09 10:43:54;;;;;;;3.45;1.10;;;24.30;84.70;;;;;;5054952;28;20209;-62
2022/06/09 10:46:32;;;;;;;4.80;1.42;;;23.90;84.90;;;;;;5053926;28;20224;-62
2022/06/09 10:55:17;;;;;;;9.52;2.95;;;24.70;84.10;;;;;;5054769;28;20228;-61
2022/06/09 10:57:53;;;;;;;5.18;1.50;;;25.00;83.10;;;;;;5054374;28;20205;-61
2022/06/09 11:00:25;;;;;;;2.72;1.10;;;24.90;81.90;;;;;;5054159;28;20614;-61
2022/06/09 11:02:54;;;;;;;5.43;1.90;;;24.70;82.60;;;;;;5053650;28;20206;-62
2022/06/09 11:05:30;;;;;;;4.32;1.00;;;24.80;83.60;;;;;;5054633;28;20230;-61
2022/06/09 11:08:06;;;;;;;3.20;1.05;;;24.90;83.00;;;;;;5055355;28;20209;-61
2022/06/09 11:10:54;;;;;;;5.13;1.35;;;24.90;81.30;;;;;;5054095;28;20201;-61
2022/06/09 11:13:49;;;;;;;1.05;0.75;;;25.10;81.70;;;;;;5053714;28;20236;-61
2022/06/09 11:16:20;;;;;;;2.83;0.88;;;25.60;77.90;;;;;;5031206;28;20229;-64
2022/06/09 11:19:00;;;;;;;2.63;1.00;;;25.40;79.40;;;;;;5054387;28;20209;-65
2022/06/09 11:21:36;;;;;;;4.22;1.05;;;25.00;79.40;;;;;;5053573;28;20229;-64
2022/06/09 11:24:17;;;;;;;4.28;1.50;;;24.80;82.10;;;;;;5053998;28;20213;-64
2022/06/09 11:26:50;;;;;;;3.58;0.82;;;24.80;82.40;;;;;;5053365;28;20232;-61
2022/06/09 11:29:47;;;;;;;4.47;1.42;;;24.90;84.10;;;;;;5054323;28;20657;-60
2022/06/09 11:32:22;;;;;;;3.15;1.38;;;24.80;85.30;;;;;;5053535;28;20205;-60
2022/06/09 11:35:04;;;;;;;4.05;1.23;;;24.60;80.90;;;;;;5053884;28;20225;-60
2022/06/09 11:37:44;;;;;;;5.47;0.95;;;24.10;81.80;;;;;;5053870;28;20206;-60
2022/06/09 11:40:23;;;;;;;4.38;2.10;;;23.70;83.60;;;;;;5054161;28;20220;-60
2022/06/09 11:43:04;;;;;;;7.95;1.40;;;23.50;84.40;;;;;;5053696;28;20229;-60
2022/06/09 11:45:34;;;;;;;9.73;1.77;;;23.40;84.40;;;;;;5053516;28;20233;-60
2022/06/09 11:48:05;;;;;;;2.05;1.02;;;23.30;86.30;;;;;;5052828;28;20206;-59
2022/06/09 11:50:37;;;;;;;4.22;1.38;;;23.50;87.90;;;;;;5053734;28;20210;-60
2022/06/09 11:53:05;;;;;;;4.13;1.30;;;23.90;88.90;;;;;;5052196;28;20214;-60
2022/06/09 11:58:44;;;;;;;6.13;1.25;;;24.50;89.10;;;;;;5053051;28;20208;-60
2022/06/09 12:01:42;;;;;;;4.38;1.20;;;24.70;85.70;;;;;;5052868;28;20226;-60
2022/06/09 12:04:20;;;;;;;2.67;0.93;;;25.00;84.90;;;;;;5053178;28;20229;-60
2022/06/09 12:07:05;;;;;;;3.30;1.17;;;25.30;81.80;;;;;;5052859;28;20220;-61
2022/06/09 12:09:45;;;;;;;2.75;0.88;;;25.50;77.50;;;;;;5053302;28;20213;-59
2022/06/09 12:12:31;;;;;;;2.63;0.98;;;25.60;76.00;;;;;;5053348;28;20210;-60
2022/06/09 12:15:10;;;;;;;3.92;1.70;;;25.70;73.90;;;;;;5052903;28;20647;-60
2022/06/09 12:17:39;;;;;;;2.80;0.98;;;25.50;75.90;;;;;;5052676;28;20205;-60
2022/06/09 12:20:26;;;;;;;1.85;0.77;;;25.40;74.80;;;;;;5053087;28;20206;-60
2022/06/09 12:23:03;;;;;;;1.23;0.73;;;24.90;78.10;;;;;;5052885;28;20232;-60
2022/06/09 12:25:36;;;;;;;4.82;1.25;;;24.50;81.50;;;;;;5052953;28;20229;-60
2022/06/09 12:28:45;;;;;;;3.35;1.00;;;24.70;82.80;;;;;;5052283;28;20210;-60
2022/06/09 12:31:13;;;;;;;3.45;1.20;;;25.30;81.30;;;;;;5053021;28;20213;-59
2022/06/09 12:33:47;;;;;;;3.13;1.10;;;25.80;77.70;;;;;;5052898;28;20684;-59
2022/06/09 12:36:27;;;;;;;3.05;1.10;;;26.00;77.80;;;;;;5053253;28;20236;-59
2022/06/09 12:38:58;;;;;;;3.00;1.13;;;25.80;78.70;;;;;;5052796;28;20212;-59
2022/06/09 12:41:30;;;;;;;6.88;0.95;;;25.40;79.00;;;;;;5052818;28;20264;-59
2022/06/09 12:44:04;;;;;;;3.58;1.00;;;25.00;80.00;;;;;;5052669;28;20213;-60
2022/06/09 12:46:32;;;;;;;2.78;1.08;;;24.80;77.60;;;;;;5051975;28;20225;-59
2022/06/09 12:48:59;;;;;;;5.55;1.30;;;24.70;79.40;;;;;;5052293;28;20206;-59
2022/06/09 12:51:29;;;;;;;2.67;0.95;;;24.70;79.70;;;;;;5052306;28;20209;-60
2022/06/09 12:54:00;;;;;;;3.38;1.05;;;25.00;78.00;;;;;;5052443;28;20622;-60
2022/06/09 12:56:32;;;;;;;2.17;1.13;;;24.80;78.70;;;;;;5052097;28;20754;-60
2022/06/09 12:59:06;;;;;;;3.60;1.20;;;24.70;80.00;;;;;;5052490;28;20902;-60
2022/06/09 13:01:33;;;;;;;4.15;1.30;;;24.50;78.90;;;;;;5052511;28;20693;-60
2022/06/09 13:04:03;;;;;;;4.07;1.63;;;23.90;80.60;;;;;;5052201;28;20735;-61
2022/06/09 13:06:31;;;;;;;4.10;0.98;;;23.70;82.50;;;;;;5052091;28;20736;-60
2022/06/09 13:09:01;;;;;;;3.90;1.40;;;23.70;81.80;;;;;;5052147;28;20205;-60
2022/06/09 13:14:22;;;;;;;1.73;0.93;;;23.60;80.10;;;;;;5051979;28;20231;-60
2022/06/09 13:16:51;;;;;;;3.78;1.15;;;23.10;82.10;;;;;;5051716;28;20217;-61
2022/06/09 13:19:20;;;;;;;2.78;0.90;;;22.80;83.10;;;;;;5052053;28;20210;-60
2022/06/09 13:21:48;;;;;;;4.13;1.25;;;22.80;83.10;;;;;;5052064;28;20221;-60
2022/06/09 13:24:22;;;;;;;4.72;0.90;;;22.70;81.30;;;;;;5052050;28;20213;-60
2022/06/09 13:26:50;;;;;;;2.45;0.90;;;22.70;82.40;;;;;;5051683;28;20216;-61
2022/06/09 13:29:23;;;;;;;5.65;1.58;;;22.50;82.50;;;;;;5052324;28;20201;-60
2022/06/09 13:31:53;;;;;;;3.45;0.80;;;22.50;83.40;;;;;;5052217;28;20205;-60